Time;durP1;ratioP1;P1;durP2;ratioP2;P2;SDS_P1;SDS_P2;PMS_P1;PMS_P2;Temp;Humidity;BMP_temperature;BMP_pressure;BME280_temperature;BME280_humidity;BME280_pressure;Samples;Min_cycle;Max_cycle;Signal;HPM_P1;HPM_P2
2023/03/12 00:00:32;;;;;;;;;;;;;;;-142.41;100.00;64449.00;5133050;28;19956;-70
2023/03/12 00:02:57;;;;;;;;;;;;;;;-142.41;100.00;64449.00;5132807;28;19923;-71
2023/03/12 00:05:24;;;;;;;;;;;;;;;-142.41;100.00;64449.00;5132957;28;19912;-70
2023/03/12 00:07:50;;;;;;;;;;;;;;;-142.41;100.00;64449.00;5132852;28;20021;-70
2023/03/12 00:10:15;;;;;;;;;;;;;;;-142.41;100.00;64449.00;5132856;28;19911;-70
2023/03/12 00:12:41;;;;;;;;;;;;;;;-142.41;100.00;64449.00;5132892;28;19918;-70
2023/03/12 00:15:06;;;;;;;;;;;;;;;-142.41;100.00;64449.00;5132918;28;20420;-70
2023/03/12 00:17:31;;;;;;;;;;;;;;;-142.41;100.00;64449.00;5132616;28;19911;-70
2023/03/12 00:19:57;;;;;;;;;;;;;;;-142.41;100.00;64449.00;5132431;28;19911;-70
2023/03/12 00:22:24;;;;;;;;;;;;;;;-142.41;100.00;64449.00;5134013;27;19912;-70
2023/03/12 00:24:50;;;;;;;;;;;;;;;-142.41;100.00;64449.00;5136527;27;20376;-70
2023/03/12 00:27:16;;;;;;;;;;;;;;;-142.41;100.00;64449.00;5136608;27;20271;-69
2023/03/12 00:29:41;;;;;;;;;;;;;;;-142.41;100.00;64449.00;5136378;27;19912;-70
2023/03/12 00:32:07;;;;;;;;;;;;;;;-142.41;100.00;64449.00;5136913;27;19916;-69
2023/03/12 00:34:33;;;;;;;;;;;;;;;-142.41;100.00;64449.00;5139389;27;19915;-69
2023/03/12 00:36:58;;;;;;;;;;;;;;;-142.41;100.00;64449.00;5136506;27;19919;-70
2023/03/12 00:39:26;;;;;;;;;;;;;;;-142.41;100.00;64449.00;5135820;27;20431;-70
2023/03/12 00:41:51;;;;;;;;;;;;;;;-142.41;100.00;64449.00;5136265;27;19916;-70
2023/03/12 00:44:17;;;;;;;;;;;;;;;-142.41;100.00;64449.00;5135855;27;19916;-69
2023/03/12 00:46:43;;;;;;;;;;;;;;;-142.41;100.00;64449.00;5135776;27;19915;-70
2023/03/12 00:49:09;;;;;;;;;;;;;;;-142.41;100.00;64449.00;5135707;27;19922;-70
2023/03/12 00:51:34;;;;;;;;;;;;;;;-142.41;100.00;64449.00;5136096;27;19915;-69
2023/03/12 00:53:59;;;;;;;;;;;;;;;-142.41;100.00;64449.00;5135816;27;19912;-72
2023/03/12 00:56:25;;;;;;;;;;;;;;;-142.41;100.00;64449.00;5135806;27;19911;-71
2023/03/12 00:58:50;;;;;;;;;;;;;;;-142.41;100.00;64449.00;5135810;27;19912;-71
2023/03/12 01:01:15;;;;;;;;;;;;;;;-142.41;100.00;64449.00;5135491;27;19947;-70
2023/03/12 01:03:41;;;;;;;;;;;;;;;-142.41;100.00;64449.00;5135710;27;19915;-70
2023/03/12 01:06:07;;;;;;;;;;;;;;;-142.41;100.00;64449.00;5135962;27;19918;-71
2023/03/12 01:08:32;;;;;;;;;;;;;;;-142.41;100.00;64449.00;5135587;27;19911;-70
2023/03/12 01:10:58;;;;;;;;;;;;;;;-142.41;100.00;64449.00;5135771;27;20395;-70
2023/03/12 01:13:23;;;;;;;;;;;;;;;-142.41;100.00;64449.00;5116982;27;19912;-70
2023/03/12 01:15:48;;;;;;;;;;;;;;;-142.41;100.00;64449.00;5135328;27;20351;-70
2023/03/12 01:18:14;;;;;;;;;;;;;;;-142.41;100.00;64449.00;5135392;27;20385;-71
2023/03/12 01:20:40;;;;;;;;;;;;;;;-142.41;100.00;64449.00;5135345;27;19911;-70
2023/03/12 01:23:05;;;;;;;;;;;;;;;-142.41;100.00;64449.00;5135483;27;20009;-70
2023/03/12 01:25:32;;;;;;;;;;;;;;;-142.41;100.00;64449.00;5135269;27;20267;-71
2023/03/12 01:27:58;;;;;;;;;;;;;;;-142.41;100.00;64449.00;5135382;27;19912;-70
2023/03/12 01:30:23;;;;;;;;;;;;;;;-142.41;100.00;64449.00;5135288;27;19912;-71
2023/03/12 01:32:50;;;;;;;;;;;;;;;-142.41;100.00;64449.00;5134857;27;19916;-70
2023/03/12 01:35:18;;;;;;;;;;;;;;;-142.41;100.00;64449.00;5134324;27;19915;-71
2023/03/12 01:37:43;;;;;;;;;;;;;;;-142.41;100.00;64449.00;5135066;27;19915;-71
2023/03/12 01:40:14;;;;;;;;;;;;;;;-142.41;100.00;64449.00;5134907;27;20385;-71
2023/03/12 01:42:39;;;;;;;;;;;;;;;-142.41;100.00;64449.00;5134908;27;20003;-70
2023/03/12 01:45:05;;;;;;;;;;;;;;;-142.41;100.00;64449.00;5116277;27;19969;-70
2023/03/12 01:47:30;;;;;;;;;;;;;;;-142.41;100.00;64449.00;5134758;27;20475;-70
2023/03/12 01:49:56;;;;;;;;;;;;;;;-142.41;100.00;64449.00;5134918;27;20013;-70
2023/03/12 01:52:25;;;;;;;;;;;;;;;-142.41;100.00;64449.00;5134881;27;19917;-70
2023/03/12 01:54:50;;;;;;;;;;;;;;;-142.41;100.00;64449.00;5134461;27;19915;-70
2023/03/12 01:57:19;;;;;;;;;;;;;;;-142.41;100.00;64449.00;5134681;27;19917;-70
2023/03/12 01:59:47;;;;;;;;;;;;;;;-142.41;100.00;64449.00;5134641;27;19911;-70
2023/03/12 02:02:14;;;;;;;;;;;;;;;-142.41;100.00;64449.00;5134587;27;19918;-70
2023/03/12 02:04:40;;;;;;;;;;;;;;;-142.41;100.00;64449.00;5134777;27;20026;-71
2023/03/12 02:07:10;;;;;;;;;;;;;;;-142.41;100.00;64449.00;5138190;27;19911;-70
2023/03/12 02:09:37;;;;;;;;;;;;;;;-142.41;100.00;64449.00;5138730;27;20340;-70
2023/03/12 02:12:03;;;;;;;;;;;;;;;-142.41;100.00;64449.00;5138070;27;19912;-70
2023/03/12 02:14:28;;;;;;;;;;;;;;;-142.41;100.00;64449.00;5137290;27;19911;-71
2023/03/12 02:16:54;;;;;;;;;;;;;;;-142.41;100.00;64449.00;5136464;27;19919;-70
2023/03/12 02:19:25;;;;;;;;;;;;;;;-142.41;100.00;64449.00;5136926;27;19912;-70
2023/03/12 02:21:51;;;;;;;;;;;;;;;-142.41;100.00;64449.00;5134971;27;20289;-71
2023/03/12 02:24:38;;;;;;;;;;;;;;;-142.41;100.00;64449.00;5133987;27;19917;-69
2023/03/12 02:27:05;;;;;;;;;;;;;;;-142.41;100.00;64449.00;5134321;27;19918;-70
2023/03/12 02:29:31;;;;;;;;;;;;;;;-142.41;100.00;64449.00;5134158;27;19912;-69
2023/03/12 02:31:59;;;;;;;;;;;;;;;-142.41;100.00;64449.00;5134064;27;19922;-70
2023/03/12 02:34:24;;;;;;;;;;;;;;;-142.41;100.00;64449.00;5133976;27;20014;-72
2023/03/12 02:36:50;;;;;;;;;;;;;;;-142.41;100.00;64449.00;5134979;27;19962;-73
2023/03/12 02:39:15;;;;;;;;;;;;;;;-142.41;100.00;64449.00;5134893;27;19911;-74
2023/03/12 02:41:42;;;;;;;;;;;;;;;-142.41;100.00;64449.00;5133776;27;19989;-74
2023/03/12 02:44:10;;;;;;;;;;;;;;;-142.41;100.00;64449.00;5133820;27;19911;-72
2023/03/12 02:46:39;;;;;;;;;;;;;;;-142.41;100.00;64449.00;5134278;27;19964;-73
2023/03/12 02:49:05;;;;;;;;;;;;;;;-142.41;100.00;64449.00;5136042;27;19964;-73
2023/03/12 02:51:30;;;;;;;;;;;;;;;-142.41;100.00;64449.00;5149484;27;19912;-70
2023/03/12 02:53:55;;;;;;;;;;;;;;;-142.41;100.00;64449.00;5138609;27;19918;-72
2023/03/12 02:56:25;;;;;;;;;;;;;;;-142.41;100.00;64449.00;5134188;27;19919;-73
2023/03/12 02:58:50;;;;;;;;;;;;;;;-142.41;100.00;64449.00;5115361;28;19923;-74
2023/03/12 03:01:16;;;;;;;;;;;;;;;-142.41;100.00;64449.00;5133498;27;19911;-74
2023/03/12 03:03:41;;;;;;;;;;;;;;;-142.41;100.00;64449.00;5133940;27;19934;-73
2023/03/12 03:06:07;;;;;;;;;;;;;;;-142.41;100.00;64449.00;5133562;27;20006;-73
2023/03/12 03:08:32;;;;;;;;;;;;;;;-142.41;100.00;64449.00;5133725;27;19919;-75
2023/03/12 03:10:59;;;;;;;;;;;;;;;-142.41;100.00;64449.00;5133790;28;19911;-73
2023/03/12 03:13:24;;;;;;;;;;;;;;;-142.41;100.00;64449.00;5133317;28;20380;-75
2023/03/12 03:15:50;;;;;;;;;;;;;;;-142.41;100.00;64449.00;5133274;28;19915;-73
2023/03/12 03:18:15;;;;;;;;;;;;;;;-142.41;100.00;64449.00;5133350;28;19954;-75
2023/03/12 03:20:42;;;;;;;;;;;;;;;-142.41;100.00;64449.00;5133154;28;20251;-73
2023/03/12 03:23:07;;;;;;;;;;;;;;;-142.41;100.00;64449.00;5133223;28;19918;-75
2023/03/12 03:25:33;;;;;;;;;;;;;;;-142.41;100.00;64449.00;5133703;28;19911;-73
2023/03/12 03:27:58;;;;;;;;;;;;;;;-142.41;100.00;64449.00;5133366;28;19916;-72
2023/03/12 03:30:23;;;;;;;;;;;;;;;-142.41;100.00;64449.00;5115236;28;19911;-73
2023/03/12 03:32:50;;;;;;;;;;;;;;;-142.41;100.00;64449.00;5098189;28;19919;-72
2023/03/12 03:35:16;;;;;;;;;;;;;;;-142.41;100.00;64449.00;5133603;28;20264;-74
2023/03/12 03:37:41;;;;;;;;;;;;;;;-142.41;100.00;64449.00;5133578;28;19915;-73
2023/03/12 03:40:10;;;;;;;;;;;;;;;-142.41;100.00;64449.00;5133656;28;19911;-72
2023/03/12 03:42:35;;;;;;;;;;;;;;;-142.41;100.00;64449.00;5132797;28;20395;-74
2023/03/12 03:45:01;;;;;;;;;;;;;;;-142.41;100.00;64449.00;5133066;28;19979;-71
2023/03/12 03:47:26;;;;;;;;;;;;;;;-142.41;100.00;64449.00;5133170;28;19911;-74
2023/03/12 03:49:51;;;;;;;;;;;;;;;-142.41;100.00;64449.00;5133047;28;19912;-73
2023/03/12 03:52:17;;;;;;;;;;;;;;;-142.41;100.00;64449.00;5132967;28;19946;-73
2023/03/12 03:54:42;;;;;;;;;;;;;;;-142.41;100.00;64449.00;5132814;28;20002;-73
2023/03/12 03:57:07;;;;;;;;;;;;;;;-142.41;100.00;64449.00;5134163;27;19950;-73
2023/03/12 03:59:33;;;;;;;;;;;;;;;-142.41;100.00;64449.00;5136966;27;20359;-72
2023/03/12 04:01:58;;;;;;;;;;;;;;;-142.41;100.00;64449.00;5137095;27;19915;-73
2023/03/12 04:04:23;;;;;;;;;;;;;;;-142.41;100.00;64449.00;5118362;27;19911;-74
2023/03/12 04:06:49;;;;;;;;;;;;;;;-142.41;100.00;64449.00;5136556;27;20358;-73
2023/03/12 04:09:14;;;;;;;;;;;;;;;-142.41;100.00;64449.00;5136907;27;19911;-73
2023/03/12 04:11:40;;;;;;;;;;;;;;;-142.41;100.00;64449.00;5136799;27;19912;-73
2023/03/12 04:14:05;;;;;;;;;;;;;;;-142.41;100.00;64449.00;5136916;27;20308;-73
2023/03/12 04:16:30;;;;;;;;;;;;;;;-142.41;100.00;64449.00;5136618;27;20389;-73
2023/03/12 04:18:56;;;;;;;;;;;;;;;-142.41;100.00;64449.00;5136853;27;19911;-74
2023/03/12 04:21:21;;;;;;;;;;;;;;;-142.41;100.00;64449.00;5136597;27;19916;-73
2023/03/12 04:23:46;;;;;;;;;;;;;;;-142.41;100.00;64449.00;5136504;27;20019;-74
2023/03/12 04:26:12;;;;;;;;;;;;;;;-142.41;100.00;64449.00;5136603;27;19911;-73
2023/03/12 04:28:37;;;;;;;;;;;;;;;-142.41;100.00;64449.00;5136880;27;19951;-74
2023/03/12 04:31:04;;;;;;;;;;;;;;;-142.41;100.00;64449.00;5121171;27;19916;-74
2023/03/12 04:33:32;;;;;;;;;;;;;;;-142.41;100.00;64449.00;5115482;28;20405;-72
2023/03/12 04:35:57;;;;;;;;;;;;;;;-142.41;100.00;64449.00;5115574;28;19924;-73
2023/03/12 04:38:24;;;;;;;;;;;;;;;-142.41;100.00;64449.00;5116116;28;19912;-73
2023/03/12 04:41:10;;;;;;;;;;;;;;;-142.41;100.00;64449.00;5115555;28;20018;-72
2023/03/12 04:43:36;;;;;;;;;;;;;;;-142.41;100.00;64449.00;5115534;28;19912;-71
2023/03/12 04:46:01;;;;;;;;;;;;;;;-142.41;100.00;64449.00;5115532;28;19915;-73
2023/03/12 04:48:29;;;;;;;;;;;;;;;-142.41;100.00;64449.00;5115877;28;20415;-73
2023/03/12 04:50:55;;;;;;;;;;;;;;;-142.41;100.00;64449.00;5117069;28;19999;-74
2023/03/12 04:53:20;;;;;;;;;;;;;;;-142.41;100.00;64449.00;5115468;28;19944;-73
2023/03/12 04:55:46;;;;;;;;;;;;;;;-142.41;100.00;64449.00;5115490;28;19912;-74
2023/03/12 04:58:11;;;;;;;;;;;;;;;-142.41;100.00;64449.00;5115466;28;19978;-72
2023/03/12 05:00:38;;;;;;;;;;;;;;;-142.41;100.00;64449.00;5115069;28;19915;-73
2023/03/12 05:03:03;;;;;;;;;;;;;;;-142.41;100.00;64449.00;5114954;28;19912;-73
2023/03/12 05:05:28;;;;;;;;;;;;;;;-142.41;100.00;64449.00;5115373;28;20274;-73
2023/03/12 05:07:54;;;;;;;;;;;;;;;-142.41;100.00;64449.00;5114775;28;20033;-74
2023/03/12 05:10:19;;;;;;;;;;;;;;;-142.41;100.00;64449.00;5114125;28;19965;-73
2023/03/12 05:12:44;;;;;;;;;;;;;;;-142.41;100.00;64449.00;5114812;28;19912;-73
2023/03/12 05:15:10;;;;;;;;;;;;;;;-142.41;100.00;64449.00;5114447;28;19912;-73
2023/03/12 05:17:35;;;;;;;;;;;;;;;-142.41;100.00;64449.00;5114937;28;19954;-73
2023/03/12 05:20:01;;;;;;;;;;;;;;;-142.41;100.00;64449.00;5114866;28;20006;-72
2023/03/12 05:22:26;;;;;;;;;;;;;;;-142.41;100.00;64449.00;5114452;28;19926;-72
2023/03/12 05:24:52;;;;;;;;;;;;;;;-142.41;100.00;64449.00;5114899;28;20022;-73
2023/03/12 05:27:18;;;;;;;;;;;;;;;-142.41;100.00;64449.00;5114682;28;19947;-74
2023/03/12 05:29:43;;;;;;;;;;;;;;;-142.41;100.00;64449.00;5114613;28;20338;-73
2023/03/12 05:32:09;;;;;;;;;;;;;;;-142.41;100.00;64449.00;5114373;28;19959;-75
2023/03/12 05:34:34;;;;;;;;;;;;;;;-142.41;100.00;64449.00;5097053;28;19923;-73
2023/03/12 05:36:59;;;;;;;;;;;;;;;-142.41;100.00;64449.00;5114415;28;19916;-73
2023/03/12 05:39:25;;;;;;;;;;;;;;;-142.41;100.00;64449.00;5114287;28;19919;-74
2023/03/12 05:41:52;;;;;;;;;;;;;;;-142.41;100.00;64449.00;5114263;28;19916;-73
2023/03/12 05:44:18;;;;;;;;;;;;;;;-142.41;100.00;64449.00;5114915;28;19919;-72
2023/03/12 05:46:43;;;;;;;;;;;;;;;-142.41;100.00;64449.00;5095617;28;19911;-75
2023/03/12 05:49:09;;;;;;;;;;;;;;;-142.41;100.00;64449.00;5079627;28;19923;-77
2023/03/12 05:51:35;;;;;;;;;;;;;;;-142.41;100.00;64449.00;5096883;28;19923;-75
2023/03/12 05:54:00;;;;;;;;;;;;;;;-142.41;100.00;64449.00;5115717;28;19912;-76
2023/03/12 05:56:26;;;;;;;;;;;;;;;-142.41;100.00;64449.00;5113397;28;19918;-76
2023/03/12 05:58:51;;;;;;;;;;;;;;;-142.41;100.00;64449.00;5114443;28;19962;-76
2023/03/12 06:01:22;;;;;;;;;;;;;;;-142.41;100.00;64449.00;5113821;28;19918;-75
2023/03/12 06:03:48;;;;;;;;;;;;;;;-142.41;100.00;64449.00;5095680;28;19965;-74
2023/03/12 06:06:16;;;;;;;;;;;;;;;-142.41;100.00;64449.00;5082136;28;19957;-73
2023/03/12 06:09:07;;;;;;;;;;;;;;;-142.41;100.00;64449.00;5113933;28;19988;-71
2023/03/12 06:11:33;;;;;;;;;;;;;;;-142.41;100.00;64449.00;5078066;28;19915;-70
2023/03/12 06:13:58;;;;;;;;;;;;;;;-142.41;100.00;64449.00;5112786;28;20278;-68
2023/03/12 06:16:28;;;;;;;;;;;;;;;-142.41;100.00;64449.00;5114206;28;20010;-69
2023/03/12 06:18:54;;;;;;;;;;;;;;;-142.41;100.00;64449.00;5113781;28;19918;-70
2023/03/12 06:21:22;;;;;;;;;;;;;;;-142.41;100.00;64449.00;5096234;28;19919;-70
2023/03/12 06:23:47;;;;;;;;;;;;;;;-142.41;100.00;64449.00;5113668;28;19935;-73
2023/03/12 06:26:13;;;;;;;;;;;;;;;-142.41;100.00;64449.00;5095166;28;20359;-74
2023/03/12 06:28:39;;;;;;;;;;;;;;;-142.41;100.00;64449.00;5113627;28;20015;-72
2023/03/12 06:31:04;;;;;;;;;;;;;;;-142.41;100.00;64449.00;5113496;28;20010;-70
2023/03/12 06:33:30;;;;;;;;;;;;;;;-142.41;100.00;64449.00;5113185;28;20032;-75
2023/03/12 06:35:58;;;;;;;;;;;;;;;-142.41;100.00;64449.00;5113173;28;19939;-73
2023/03/12 06:38:24;;;;;;;;;;;;;;;-142.41;100.00;64449.00;5094825;28;20267;-69
2023/03/12 06:40:54;;;;;;;;;;;;;;;-142.41;100.00;64449.00;5077734;28;19985;-69
2023/03/12 06:43:19;;;;;;;;;;;;;;;-142.41;100.00;64449.00;5112828;28;19911;-70
2023/03/12 06:45:45;;;;;;;;;;;;;;;-142.41;100.00;64449.00;5112599;28;19912;-71
2023/03/12 06:48:10;;;;;;;;;;;;;;;-142.41;100.00;64449.00;5113110;28;19912;-70
2023/03/12 06:50:36;;;;;;;;;;;;;;;-142.41;100.00;64449.00;5113061;28;19937;-69
2023/03/12 06:53:01;;;;;;;;;;;;;;;-142.41;100.00;64449.00;5113184;28;19919;-69
2023/03/12 06:55:27;;;;;;;;;;;;;;;-142.41;100.00;64449.00;5112850;28;19912;-70
2023/03/12 06:57:52;;;;;;;;;;;;;;;-142.41;100.00;64449.00;5112879;28;19986;-70
2023/03/12 07:00:18;;;;;;;;;;;;;;;-142.41;100.00;64449.00;5112895;28;19912;-71
2023/03/12 07:02:43;;;;;;;;;;;;;;;-142.41;100.00;64449.00;5094999;28;19918;-71
2023/03/12 07:05:08;;;;;;;;;;;;;;;-142.41;100.00;64449.00;5112815;28;19955;-70
2023/03/12 07:07:34;;;;;;;;;;;;;;;-142.41;100.00;64449.00;5112731;28;19998;-69
2023/03/12 07:10:00;;;;;;;;;;;;;;;-142.41;100.00;64449.00;5097264;28;19915;-69
2023/03/12 07:12:26;;;;;;;;;;;;;;;-142.41;100.00;64449.00;5079109;28;20658;-72
2023/03/12 07:14:51;;;;;;;;;;;;;;;-142.41;100.00;64449.00;5113560;28;19912;-77
2023/03/12 07:17:17;;;;;;;;;;;;;;;-142.41;100.00;64449.00;5078047;28;19919;-73
2023/03/12 07:19:42;;;;;;;;;;;;;;;-142.41;100.00;64449.00;5094579;28;19986;-70
2023/03/12 07:22:08;;;;;;;;;;;;;;;-142.41;100.00;64449.00;5098595;28;20316;-72
2023/03/12 07:24:33;;;;;;;;;;;;;;;-142.41;100.00;64449.00;5118434;28;19919;-75
2023/03/12 07:26:59;;;;;;;;;;;;;;;-142.41;100.00;64449.00;5077729;28;20321;-73
2023/03/12 07:29:24;;;;;;;;;;;;;;;-142.41;100.00;64449.00;5102192;28;19918;-71
2023/03/12 07:31:49;;;;;;;;;;;;;;;-142.41;100.00;64449.00;5113716;28;20271;-70
2023/03/12 07:34:15;;;;;;;;;;;;;;;-142.41;100.00;64449.00;5117257;28;20364;-70
2023/03/12 07:36:40;;;;;;;;;;;;;;;-142.41;100.00;64449.00;5101862;28;19916;-70
2023/03/12 07:39:07;;;;;;;;;;;;;;;-142.41;100.00;64449.00;5125836;27;19912;-72
2023/03/12 07:41:36;;;;;;;;;;;;;;;-142.41;100.00;64449.00;5107272;27;19951;-68
2023/03/12 07:44:01;;;;;;;;;;;;;;;-142.41;100.00;64449.00;5128144;27;19911;-67
2023/03/12 07:46:26;;;;;;;;;;;;;;;-142.41;100.00;64449.00;5105094;27;19918;-67
2023/03/12 07:48:52;;;;;;;;;;;;;;;-142.41;100.00;64449.00;5125109;27;20263;-66
2023/03/12 07:51:17;;;;;;;;;;;;;;;-142.41;100.00;64449.00;5107133;27;20328;-68
2023/03/12 07:53:42;;;;;;;;;;;;;;;-142.41;100.00;64449.00;5109214;27;19918;-68
2023/03/12 07:56:08;;;;;;;;;;;;;;;-142.41;100.00;64449.00;5128162;27;19911;-67
2023/03/12 07:58:35;;;;;;;;;;;;;;;-142.41;100.00;64449.00;5107670;27;19912;-68
2023/03/12 08:01:00;;;;;;;;;;;;;;;-142.41;100.00;64449.00;5127227;27;19924;-67
2023/03/12 08:03:25;;;;;;;;;;;;;;;-142.41;100.00;64449.00;5111720;27;20376;-68
2023/03/12 08:05:55;;;;;;;;;;;;;;;-142.41;100.00;64449.00;5126962;27;19911;-67
2023/03/12 08:08:20;;;;;;;;;;;;;;;-142.41;100.00;64449.00;5126825;27;19923;-68
2023/03/12 08:11:11;;;;;;;;;;;;;;;-142.41;100.00;64449.00;5112807;27;20393;-69
2023/03/12 08:13:37;;;;;;;;;;;;;;;-142.41;100.00;64449.00;5105142;27;19915;-70
2023/03/12 08:16:02;;;;;;;;;;;;;;;-142.41;100.00;64449.00;5106100;27;19918;-70
2023/03/12 08:18:28;;;;;;;;;;;;;;;-142.41;100.00;64449.00;5124346;27;20368;-73
2023/03/12 08:20:53;;;;;;;;;;;;;;;-142.41;100.00;64449.00;5106722;27;20316;-70
2023/03/12 08:23:20;;;;;;;;;;;;;;;-142.41;100.00;64449.00;5104873;27;19954;-71
2023/03/12 08:25:46;;;;;;;;;;;;;;;-142.41;100.00;64449.00;5091625;27;19918;-73
2023/03/12 08:28:12;;;;;;;;;;;;;;;-142.41;100.00;64449.00;5116017;27;19919;-71
2023/03/12 08:30:37;;;;;;;;;;;;;;;-142.41;100.00;64449.00;5137667;27;19911;-73
2023/03/12 08:33:04;;;;;;;;;;;;;;;-142.41;100.00;64449.00;5106911;28;20349;-75
2023/03/12 08:35:30;;;;;;;;;;;;;;;-142.41;100.00;64449.00;5115165;27;19926;-71
2023/03/12 08:37:55;;;;;;;;;;;;;;;-142.41;100.00;64449.00;5096988;27;19911;-73
2023/03/12 08:40:22;;;;;;;;;;;;;;;-142.41;100.00;64449.00;5130235;27;19915;-73
2023/03/12 08:42:47;;;;;;;;;;;;;;;-142.41;100.00;64449.00;5108481;27;19911;-73
2023/03/12 08:45:14;;;;;;;;;;;;;;;-142.41;100.00;64449.00;5104017;27;20415;-72
2023/03/12 08:47:40;;;;;;;;;;;;;;;-142.41;100.00;64449.00;5115979;28;19916;-71
2023/03/12 08:50:06;;;;;;;;;;;;;;;-142.41;100.00;64449.00;5115616;28;20252;-72
2023/03/12 08:52:31;;;;;;;;;;;;;;;-142.41;100.00;64449.00;5115827;28;19919;-71
2023/03/12 08:54:56;;;;;;;;;;;;;;;-142.41;100.00;64449.00;5115661;28;20400;-73
2023/03/12 08:57:22;;;;;;;;;;;;;;;-142.41;100.00;64449.00;5122888;27;19918;-73
2023/03/12 08:59:47;;;;;;;;;;;;;;;-142.41;100.00;64449.00;5129831;27;19922;-72
2023/03/12 09:02:13;;;;;;;;;;;;;;;-142.41;100.00;64449.00;5126102;27;19911;-74
2023/03/12 09:04:38;;;;;;;;;;;;;;;-142.41;100.00;64449.00;5089720;27;19959;-73
2023/03/12 09:07:04;;;;;;;;;;;;;;;-142.41;100.00;64449.00;5104922;27;20323;-72
2023/03/12 09:09:29;;;;;;;;;;;;;;;-142.41;100.00;64449.00;5104986;27;19915;-72
2023/03/12 09:11:59;;;;;;;;;;;;;;;-142.41;100.00;64449.00;5108352;27;19915;-73
2023/03/12 09:14:24;;;;;;;;;;;;;;;-142.41;100.00;64449.00;5126305;27;19965;-77
2023/03/12 09:16:49;;;;;;;;;;;;;;;-142.41;100.00;64449.00;5126669;27;20496;-73
2023/03/12 09:19:15;;;;;;;;;;;;;;;-142.41;100.00;64449.00;5108387;27;20271;-73
2023/03/12 09:21:41;;;;;;;;;;;;;;;-142.41;100.00;64449.00;5105493;27;19912;-72
2023/03/12 09:24:06;;;;;;;;;;;;;;;-142.41;100.00;64449.00;5124249;27;20006;-72
2023/03/12 09:26:32;;;;;;;;;;;;;;;-142.41;100.00;64449.00;5105384;27;20311;-72
2023/03/12 09:28:58;;;;;;;;;;;;;;;-142.41;100.00;64449.00;5105358;27;19919;-73
2023/03/12 09:31:23;;;;;;;;;;;;;;;-142.41;100.00;64449.00;5103010;28;19912;-72
2023/03/12 09:33:50;;;;;;;;;;;;;;;-142.41;100.00;64449.00;5089558;27;20286;-71
2023/03/12 09:36:16;;;;;;;;;;;;;;;-142.41;100.00;64449.00;5121238;27;19972;-71
2023/03/12 09:38:41;;;;;;;;;;;;;;;-142.41;100.00;64449.00;5102169;27;20035;-72
2023/03/12 09:41:15;;;;;;;;;;;;;;;-142.41;100.00;64449.00;5088102;27;19911;-74
2023/03/12 09:43:44;;;;;;;;;;;;;;;-142.41;100.00;64449.00;5108718;27;19969;-74
2023/03/12 09:46:16;;;;;;;;;;;;;;;-142.41;100.00;64449.00;5126469;27;19916;-76
2023/03/12 09:48:44;;;;;;;;;;;;;;;-142.41;100.00;64449.00;5101473;28;19918;-73
2023/03/12 09:51:15;;;;;;;;;;;;;;;-142.41;100.00;64449.00;5126388;27;19937;-74
2023/03/12 09:53:45;;;;;;;;;;;;;;;-142.41;100.00;64449.00;5087902;27;19911;-73
2023/03/12 09:56:14;;;;;;;;;;;;;;;-142.41;100.00;64449.00;5090287;27;19923;-70
2023/03/12 09:58:41;;;;;;;;;;;;;;;-142.41;100.00;64449.00;5104465;27;19922;-70
2023/03/12 10:01:32;;;;;;;;;;;;;;;-142.41;100.00;64449.00;5127546;27;19973;-71
2023/03/12 10:04:19;;;;;;;;;;;;;;;-142.41;100.00;64449.00;5091860;28;19911;-72
2023/03/12 10:06:54;;;;;;;;;;;;;;;-142.41;100.00;64449.00;5086183;27;19911;-71
2023/03/12 10:09:38;;;;;;;;;;;;;;;-142.41;100.00;64449.00;5125371;27;19915;-70
2023/03/12 10:12:19;;;;;;;;;;;;;;;-142.41;100.00;64449.00;5122302;27;20014;-72
2023/03/12 10:14:54;;;;;;;;;;;;;;;-142.41;100.00;64449.00;5086493;28;20311;-70
2023/03/12 10:17:25;;;;;;;;;;;;;;;-142.41;100.00;64449.00;5100675;27;19916;-70
2023/03/12 10:19:54;;;;;;;;;;;;;;;-142.41;100.00;64449.00;5105521;27;19989;-74
2023/03/12 10:22:25;;;;;;;;;;;;;;;-142.41;100.00;64449.00;5088757;27;19919;-70
2023/03/12 10:24:54;;;;;;;;;;;;;;;-142.41;100.00;64449.00;5088503;27;19916;-73
2023/03/12 10:27:21;;;;;;;;;;;;;;;-142.41;100.00;64449.00;5088413;27;19920;-70
2023/03/12 10:29:49;;;;;;;;;;;;;;;-142.41;100.00;64449.00;5087964;27;19911;-72
2023/03/12 10:32:15;;;;;;;;;;;;;;;-142.41;100.00;64449.00;5105466;28;19924;-69
2023/03/12 10:34:48;;;;;;;;;;;;;;;-142.41;100.00;64449.00;5113036;28;19945;-74
2023/03/12 10:37:25;;;;;;;;;;;;;;;-142.41;100.00;64449.00;5114045;28;20024;-71
2023/03/12 10:39:52;;;;;;;;;;;;;;;-142.41;100.00;64449.00;5113011;28;20327;-72
2023/03/12 10:42:18;;;;;;;;;;;;;;;-142.41;100.00;64449.00;5114023;28;19912;-75
2023/03/12 10:44:46;;;;;;;;;;;;;;;-142.41;100.00;64449.00;5115182;28;19911;-72
2023/03/12 10:47:11;;;;;;;;;;;;;;;-142.41;100.00;64449.00;5098290;28;19919;-72
2023/03/12 10:49:36;;;;;;;;;;;;;;;-142.41;100.00;64449.00;5114888;28;19912;-72
2023/03/12 10:52:24;;;;;;;;;;;;;;;-142.41;100.00;64449.00;5117061;28;19911;-75
2023/03/12 10:54:51;;;;;;;;;;;;;;;-142.41;100.00;64449.00;5096761;28;19928;-72
2023/03/12 10:57:17;;;;;;;;;;;;;;;-142.41;100.00;64449.00;5119114;28;19911;-76
2023/03/12 10:59:45;;;;;;;;;;;;;;;-142.41;100.00;64449.00;5116742;28;19912;-74
2023/03/12 11:02:29;;;;;;;;;;;;;;;-142.41;100.00;64449.00;5094502;28;19965;-76
2023/03/12 11:04:55;;;;;;;;;;;;;;;-142.41;100.00;64449.00;5107208;28;20275;-75
2023/03/12 11:07:26;;;;;;;;;;;;;;;-142.41;100.00;64449.00;5112646;28;19916;-72
2023/03/12 11:10:07;;;;;;;;;;;;;;;-142.41;100.00;64449.00;5112972;28;20010;-77
2023/03/12 11:13:02;;;;;;;;;;;;;;;-142.41;100.00;64449.00;5095960;28;19915;-73
2023/03/12 11:15:31;;;;;;;;;;;;;;;-142.41;100.00;64449.00;5112991;28;19919;-72
2023/03/12 11:18:15;;;;;;;;;;;;;;;-142.41;100.00;64449.00;5104739;28;19942;-72
2023/03/12 11:20:40;;;;;;;;;;;;;;;-142.41;100.00;64449.00;5109381;28;19923;-70
2023/03/12 11:23:16;;;;;;;;;;;;;;;-142.41;100.00;64449.00;5112072;28;19912;-71
2023/03/12 11:25:41;;;;;;;;;;;;;;;-142.41;100.00;64449.00;5111470;28;20398;-70
2023/03/12 11:28:11;;;;;;;;;;;;;;;-142.41;100.00;64449.00;5112456;28;20003;-69
2023/03/12 11:30:41;;;;;;;;;;;;;;;-142.41;100.00;64449.00;5112618;28;20389;-69
2023/03/12 11:33:08;;;;;;;;;;;;;;;-142.41;100.00;64449.00;5124651;28;19954;-70
2023/03/12 11:36:02;;;;;;;;;;;;;;;-142.41;100.00;64449.00;5130077;28;19916;-70
2023/03/12 11:38:38;;;;;;;;;;;;;;;-142.41;100.00;64449.00;5116788;28;19919;-70
2023/03/12 11:41:13;;;;;;;;;;;;;;;-142.41;100.00;64449.00;5098164;28;20354;-72
2023/03/12 11:43:48;;;;;;;;;;;;;;;-142.41;100.00;64449.00;5133309;28;20347;-71
2023/03/12 11:46:16;;;;;;;;;;;;;;;-142.41;100.00;64449.00;5115180;28;20304;-70
2023/03/12 11:48:57;;;;;;;;;;;;;;;-142.41;100.00;64449.00;5115297;28;19919;-70
2023/03/12 11:51:25;;;;;;;;;;;;;;;-142.41;100.00;64449.00;5098229;28;19915;-73
2023/03/12 11:54:05;;;;;;;;;;;;;;;-142.41;100.00;64449.00;5098158;28;19940;-70
2023/03/12 11:56:36;;;;;;;;;;;;;;;-142.41;100.00;64449.00;5115058;28;19968;-70
2023/03/12 11:59:11;;;;;;;;;;;;;;;-142.41;100.00;64449.00;5114712;28;19911;-71
2023/03/12 12:01:38;;;;;;;;;;;;;;;-142.41;100.00;64449.00;5114663;28;19912;-70
2023/03/12 12:04:03;;;;;;;;;;;;;;;-142.41;100.00;64449.00;5097804;28;20412;-68
2023/03/12 12:06:51;;;;;;;;;;;;;;;-142.41;100.00;64449.00;5131044;28;19911;-71
2023/03/12 12:09:32;;;;;;;;;;;;;;;-142.41;100.00;64449.00;5112595;28;19912;-70
2023/03/12 12:12:27;;;;;;;;;;;;;;;-142.41;100.00;64449.00;5094367;28;20411;-69
2023/03/12 12:15:39;;;;;;;;;;;;;;;-142.41;100.00;64449.00;5095701;28;19967;-73
2023/03/12 12:18:12;;;;;;;;;;;;;;;-142.41;100.00;64449.00;5095522;28;19927;-70
2023/03/12 12:20:44;;;;;;;;;;;;;;;-142.41;100.00;64449.00;5122205;27;19964;-70